sensor_id;sensor_type;location;lat;lon;timestamp;pressure;altitude;pressure_sealevel;temperature
69545;BMP180;56766;52.260;20.746;2022-08-19T00:01:57;100170.80;;;20.80
69545;BMP180;56766;52.260;20.746;2022-08-19T00:04:30;100165.40;;;20.80
69545;BMP180;56766;52.260;20.746;2022-08-19T00:06:59;100166.40;;;20.80
69545;BMP180;56766;52.260;20.746;2022-08-19T00:09:28;100163.40;;;20.72
69545;BMP180;56766;52.260;20.746;2022-08-19T00:11:57;100166.20;;;20.70
69545;BMP180;56766;52.260;20.746;2022-08-19T00:14:28;100166.60;;;20.70
69545;BMP180;56766;52.260;20.746;2022-08-19T00:16:57;100160.80;;;20.60
69545;BMP180;56766;52.260;20.746;2022-08-19T00:19:25;100157.60;;;20.60
69545;BMP180;56766;52.260;20.746;2022-08-19T00:21:53;100162.40;;;20.60
69545;BMP180;56766;52.260;20.746;2022-08-19T00:24:22;100165.00;;;20.50
69545;BMP180;56766;52.260;20.746;2022-08-19T00:26:51;100161.80;;;20.50
69545;BMP180;56766;52.260;20.746;2022-08-19T00:29:21;100160.40;;;20.50
69545;BMP180;56766;52.260;20.746;2022-08-19T00:31:48;100162.60;;;20.50
69545;BMP180;56766;52.260;20.746;2022-08-19T00:34:17;100162.60;;;20.50
69545;BMP180;56766;52.260;20.746;2022-08-19T00:36:44;100162.40;;;20.50
69545;BMP180;56766;52.260;20.746;2022-08-19T00:39:14;100163.00;;;20.50
69545;BMP180;56766;52.260;20.746;2022-08-19T00:41:44;100165.40;;;20.40
69545;BMP180;56766;52.260;20.746;2022-08-19T00:44:17;100165.40;;;20.40
69545;BMP180;56766;52.260;20.746;2022-08-19T00:46:49;100170.00;;;20.40
69545;BMP180;56766;52.260;20.746;2022-08-19T00:49:34;100165.40;;;20.40
69545;BMP180;56766;52.260;20.746;2022-08-19T00:52:09;100166.80;;;20.40
69545;BMP180;56766;52.260;20.746;2022-08-19T00:54:40;100161.00;;;20.40
69545;BMP180;56766;52.260;20.746;2022-08-19T00:57:15;100158.80;;;20.30
69545;BMP180;56766;52.260;20.746;2022-08-19T00:59:48;100160.20;;;20.28
69545;BMP180;56766;52.260;20.746;2022-08-19T01:02:19;100171.40;;;20.20
69545;BMP180;56766;52.260;20.746;2022-08-19T01:04:46;100174.20;;;20.20
69545;BMP180;56766;52.260;20.746;2022-08-19T01:07:13;100177.40;;;20.20
69545;BMP180;56766;52.260;20.746;2022-08-19T01:09:40;100170.40;;;20.20
69545;BMP180;56766;52.260;20.746;2022-08-19T01:12:08;100166.60;;;20.20
69545;BMP180;56766;52.260;20.746;2022-08-19T01:14:39;100167.00;;;20.20
69545;BMP180;56766;52.260;20.746;2022-08-19T01:17:11;100167.80;;;20.20
69545;BMP180;56766;52.260;20.746;2022-08-19T01:19:42;100169.20;;;20.20
69545;BMP180;56766;52.260;20.746;2022-08-19T01:24:48;100170.60;;;20.20
69545;BMP180;56766;52.260;20.746;2022-08-19T01:27:16;100170.80;;;20.20
69545;BMP180;56766;52.260;20.746;2022-08-19T01:29:45;100167.80;;;20.20
69545;BMP180;56766;52.260;20.746;2022-08-19T01:32:15;100167.40;;;20.20
69545;BMP180;56766;52.260;20.746;2022-08-19T01:34:43;100161.00;;;20.20
69545;BMP180;56766;52.260;20.746;2022-08-19T01:37:14;100166.20;;;20.20
69545;BMP180;56766;52.260;20.746;2022-08-19T01:39:42;100164.60;;;20.10
69545;BMP180;56766;52.260;20.746;2022-08-19T01:42:09;100156.80;;;20.10
69545;BMP180;56766;52.260;20.746;2022-08-19T01:44:40;100156.60;;;20.10
69545;BMP180;56766;52.260;20.746;2022-08-19T01:47:09;100154.40;;;20.10
69545;BMP180;56766;52.260;20.746;2022-08-19T01:49:37;100151.80;;;20.10
69545;BMP180;56766;52.260;20.746;2022-08-19T01:52:05;100152.80;;;20.10
69545;BMP180;56766;52.260;20.746;2022-08-19T01:54:33;100146.00;;;20.10
69545;BMP180;56766;52.260;20.746;2022-08-19T01:57:08;100147.00;;;20.00
69545;BMP180;56766;52.260;20.746;2022-08-19T01:59:41;100154.00;;;20.00
69545;BMP180;56766;52.260;20.746;2022-08-19T02:02:08;100150.20;;;20.00
69545;BMP180;56766;52.260;20.746;2022-08-19T02:04:36;100150.80;;;19.94
69545;BMP180;56766;52.260;20.746;2022-08-19T02:07:06;100152.80;;;19.98
69545;BMP180;56766;52.260;20.746;2022-08-19T02:09:35;100151.40;;;19.90
69545;BMP180;56766;52.260;20.746;2022-08-19T02:12:03;100144.60;;;19.90
69545;BMP180;56766;52.260;20.746;2022-08-19T02:14:29;100142.40;;;19.80
69545;BMP180;56766;52.260;20.746;2022-08-19T02:16:56;100140.20;;;19.80
69545;BMP180;56766;52.260;20.746;2022-08-19T02:19:23;100135.60;;;19.80
69545;BMP180;56766;52.260;20.746;2022-08-19T02:21:49;100135.00;;;19.70
69545;BMP180;56766;52.260;20.746;2022-08-19T02:24:16;100136.40;;;19.70
69545;BMP180;56766;52.260;20.746;2022-08-19T02:26:43;100137.60;;;19.70
69545;BMP180;56766;52.260;20.746;2022-08-19T02:29:10;100132.60;;;19.70
69545;BMP180;56766;52.260;20.746;2022-08-19T02:31:37;100135.40;;;19.64
69545;BMP180;56766;52.260;20.746;2022-08-19T02:34:03;100137.00;;;19.60
69545;BMP180;56766;52.260;20.746;2022-08-19T02:36:30;100138.40;;;19.60
69545;BMP180;56766;52.260;20.746;2022-08-19T02:38:57;100135.20;;;19.60
69545;BMP180;56766;52.260;20.746;2022-08-19T02:41:29;100136.00;;;19.58
69545;BMP180;56766;52.260;20.746;2022-08-19T02:44:00;100134.60;;;19.50
69545;BMP180;56766;52.260;20.746;2022-08-19T02:46:31;100133.20;;;19.50
69545;BMP180;56766;52.260;20.746;2022-08-19T02:49:06;100133.60;;;19.50
69545;BMP180;56766;52.260;20.746;2022-08-19T02:51:40;100136.00;;;19.50
69545;BMP180;56766;52.260;20.746;2022-08-19T02:54:12;100142.40;;;19.60
69545;BMP180;56766;52.260;20.746;2022-08-19T02:56:42;100135.40;;;19.60
69545;BMP180;56766;52.260;20.746;2022-08-19T02:59:10;100131.80;;;19.60
69545;BMP180;56766;52.260;20.746;2022-08-19T03:01:41;100131.00;;;19.60
69545;BMP180;56766;52.260;20.746;2022-08-19T03:04:11;100131.60;;;19.60
69545;BMP180;56766;52.260;20.746;2022-08-19T03:06:43;100133.60;;;19.60
69545;BMP180;56766;52.260;20.746;2022-08-19T03:09:11;100136.20;;;19.60
69545;BMP180;56766;52.260;20.746;2022-08-19T03:11:39;100134.80;;;19.60
69545;BMP180;56766;52.260;20.746;2022-08-19T03:14:09;100130.80;;;19.60
69545;BMP180;56766;52.260;20.746;2022-08-19T03:16:50;100128.60;;;19.68
69545;BMP180;56766;52.260;20.746;2022-08-19T03:19:19;100128.80;;;19.70
69545;BMP180;56766;52.260;20.746;2022-08-19T03:21:49;100129.20;;;19.70
69545;BMP180;56766;52.260;20.746;2022-08-19T03:24:17;100128.60;;;19.72
69545;BMP180;56766;52.260;20.746;2022-08-19T03:26:50;100134.00;;;19.80
69545;BMP180;56766;52.260;20.746;2022-08-19T03:29:19;100143.60;;;19.90
69545;BMP180;56766;52.260;20.746;2022-08-19T03:31:46;100142.40;;;19.90
69545;BMP180;56766;52.260;20.746;2022-08-19T03:34:20;100143.80;;;19.90
69545;BMP180;56766;52.260;20.746;2022-08-19T03:36:47;100141.00;;;20.00
69545;BMP180;56766;52.260;20.746;2022-08-19T03:39:16;100147.00;;;20.00
69545;BMP180;56766;52.260;20.746;2022-08-19T03:41:47;100144.20;;;20.10
69545;BMP180;56766;52.260;20.746;2022-08-19T03:44:21;100147.00;;;20.10
69545;BMP180;56766;52.260;20.746;2022-08-19T03:46:56;100151.80;;;20.18
69545;BMP180;56766;52.260;20.746;2022-08-19T03:49:29;100156.60;;;20.20
69545;BMP180;56766;52.260;20.746;2022-08-19T03:51:58;100157.80;;;20.22
69545;BMP180;56766;52.260;20.746;2022-08-19T03:54:27;100157.00;;;20.30
69545;BMP180;56766;52.260;20.746;2022-08-19T03:56:57;100159.20;;;20.40
69545;BMP180;56766;52.260;20.746;2022-08-19T03:59:32;100163.60;;;20.46
69545;BMP180;56766;52.260;20.746;2022-08-19T04:02:06;100164.80;;;20.50
69545;BMP180;56766;52.260;20.746;2022-08-19T04:04:40;100155.60;;;20.60
69545;BMP180;56766;52.260;20.746;2022-08-19T04:07:11;100160.60;;;20.60
69545;BMP180;56766;52.260;20.746;2022-08-19T04:09:39;100154.60;;;20.70
69545;BMP180;56766;52.260;20.746;2022-08-19T04:12:07;100158.20;;;20.70
69545;BMP180;56766;52.260;20.746;2022-08-19T04:14:34;100152.00;;;20.80
69545;BMP180;56766;52.260;20.746;2022-08-19T04:17:03;100148.40;;;20.90
69545;BMP180;56766;52.260;20.746;2022-08-19T04:19:34;100146.20;;;20.90
69545;BMP180;56766;52.260;20.746;2022-08-19T04:22:03;100140.40;;;21.00
69545;BMP180;56766;52.260;20.746;2022-08-19T04:24:31;100141.80;;;21.10
69545;BMP180;56766;52.260;20.746;2022-08-19T04:27:01;100141.20;;;21.14
69545;BMP180;56766;52.260;20.746;2022-08-19T04:29:29;100144.00;;;21.20
69545;BMP180;56766;52.260;20.746;2022-08-19T04:31:58;100142.80;;;21.30
69545;BMP180;56766;52.260;20.746;2022-08-19T04:34:28;100142.20;;;21.40
69545;BMP180;56766;52.260;20.746;2022-08-19T04:36:58;100142.20;;;21.50
69545;BMP180;56766;52.260;20.746;2022-08-19T04:39:30;100150.20;;;21.60
69545;BMP180;56766;52.260;20.746;2022-08-19T04:42:18;100144.40;;;21.70
69545;BMP180;56766;52.260;20.746;2022-08-19T04:45:10;100144.00;;;21.72
69545;BMP180;56766;52.260;20.746;2022-08-19T04:47:39;100138.60;;;21.80
69545;BMP180;56766;52.260;20.746;2022-08-19T04:50:07;100138.60;;;21.90
69545;BMP180;56766;52.260;20.746;2022-08-19T04:52:40;100141.60;;;21.94
69545;BMP180;56766;52.260;20.746;2022-08-19T04:55:12;100137.80;;;22.10
69545;BMP180;56766;52.260;20.746;2022-08-19T04:57:39;100138.40;;;22.10
69545;BMP180;56766;52.260;20.746;2022-08-19T05:00:09;100139.60;;;22.10
69545;BMP180;56766;52.260;20.746;2022-08-19T05:02:37;100142.20;;;22.10
69545;BMP180;56766;52.260;20.746;2022-08-19T05:05:05;100140.20;;;22.10
69545;BMP180;56766;52.260;20.746;2022-08-19T05:07:32;100142.80;;;22.20
69545;BMP180;56766;52.260;20.746;2022-08-19T05:09:59;100148.40;;;22.24
69545;BMP180;56766;52.260;20.746;2022-08-19T05:12:26;100146.00;;;22.30
69545;BMP180;56766;52.260;20.746;2022-08-19T05:14:57;100148.40;;;22.40
69545;BMP180;56766;52.260;20.746;2022-08-19T05:17:27;100145.20;;;22.50
69545;BMP180;56766;52.260;20.746;2022-08-19T05:19:55;100143.40;;;22.54
69545;BMP180;56766;52.260;20.746;2022-08-19T05:22:44;100148.40;;;22.70
69545;BMP180;56766;52.260;20.746;2022-08-19T05:25:19;100159.40;;;22.98
69545;BMP180;56766;52.260;20.746;2022-08-19T05:27:47;100150.80;;;23.28
69545;BMP180;56766;52.260;20.746;2022-08-19T05:30:16;100151.40;;;23.56
69545;BMP180;56766;52.260;20.746;2022-08-19T05:32:43;100146.00;;;23.80
69545;BMP180;56766;52.260;20.746;2022-08-19T05:35:11;100151.40;;;24.00
69545;BMP180;56766;52.260;20.746;2022-08-19T05:37:38;100151.00;;;24.20
69545;BMP180;56766;52.260;20.746;2022-08-19T05:40:08;100152.60;;;24.32
69545;BMP180;56766;52.260;20.746;2022-08-19T05:42:35;100159.00;;;24.50
69545;BMP180;56766;52.260;20.746;2022-08-19T05:45:03;100164.80;;;24.60
69545;BMP180;56766;52.260;20.746;2022-08-19T05:47:30;100165.60;;;24.74
69545;BMP180;56766;52.260;20.746;2022-08-19T05:49:58;100161.20;;;24.90
69545;BMP180;56766;52.260;20.746;2022-08-19T05:52:25;100161.20;;;25.00
69545;BMP180;56766;52.260;20.746;2022-08-19T05:54:53;100155.00;;;25.08
69545;BMP180;56766;52.260;20.746;2022-08-19T05:57:23;100152.80;;;25.20
69545;BMP180;56766;52.260;20.746;2022-08-19T05:59:51;100144.80;;;25.30
69545;BMP180;56766;52.260;20.746;2022-08-19T06:02:19;100141.00;;;25.30
69545;BMP180;56766;52.260;20.746;2022-08-19T06:04:46;100141.60;;;25.40
69545;BMP180;56766;52.260;20.746;2022-08-19T06:07:13;100139.80;;;25.50
69545;BMP180;56766;52.260;20.746;2022-08-19T06:09:41;100141.20;;;25.50
69545;BMP180;56766;52.260;20.746;2022-08-19T06:12:07;100146.80;;;25.60
69545;BMP180;56766;52.260;20.746;2022-08-19T06:14:37;100147.60;;;25.66
69545;BMP180;56766;52.260;20.746;2022-08-19T06:17:04;100146.60;;;25.70
69545;BMP180;56766;52.260;20.746;2022-08-19T06:19:31;100152.00;;;25.80
69545;BMP180;56766;52.260;20.746;2022-08-19T06:22:00;100151.80;;;25.84
69545;BMP180;56766;52.260;20.746;2022-08-19T06:24:29;100154.40;;;25.90
69545;BMP180;56766;52.260;20.746;2022-08-19T06:26:58;100157.80;;;25.90
69545;BMP180;56766;52.260;20.746;2022-08-19T06:29:27;100159.60;;;25.90
69545;BMP180;56766;52.260;20.746;2022-08-19T06:31:57;100166.20;;;26.00
69545;BMP180;56766;52.260;20.746;2022-08-19T06:34:27;100164.40;;;26.10
69545;BMP180;56766;52.260;20.746;2022-08-19T06:36:58;100166.80;;;26.10
69545;BMP180;56766;52.260;20.746;2022-08-19T06:39:36;100170.20;;;26.20
69545;BMP180;56766;52.260;20.746;2022-08-19T06:42:06;100165.40;;;26.30
69545;BMP180;56766;52.260;20.746;2022-08-19T06:44:38;100162.80;;;26.30
69545;BMP180;56766;52.260;20.746;2022-08-19T06:47:10;100160.80;;;26.20
69545;BMP180;56766;52.260;20.746;2022-08-19T06:49:37;100163.60;;;26.10
69545;BMP180;56766;52.260;20.746;2022-08-19T06:52:05;100160.40;;;26.00
69545;BMP180;56766;52.260;20.746;2022-08-19T06:54:32;100157.60;;;26.10
69545;BMP180;56766;52.260;20.746;2022-08-19T06:57:01;100156.20;;;26.10
69545;BMP180;56766;52.260;20.746;2022-08-19T06:59:31;100155.80;;;26.00
69545;BMP180;56766;52.260;20.746;2022-08-19T07:02:04;100160.80;;;26.00
69545;BMP180;56766;52.260;20.746;2022-08-19T07:04:37;100165.40;;;26.10
69545;BMP180;56766;52.260;20.746;2022-08-19T07:07:12;100167.20;;;26.20
69545;BMP180;56766;52.260;20.746;2022-08-19T07:09:43;100162.40;;;26.40
69545;BMP180;56766;52.260;20.746;2022-08-19T07:12:13;100164.80;;;26.50
69545;BMP180;56766;52.260;20.746;2022-08-19T07:14:43;100172.40;;;26.50
69545;BMP180;56766;52.260;20.746;2022-08-19T07:17:13;100169.60;;;26.60
69545;BMP180;56766;52.260;20.746;2022-08-19T07:19:41;100158.80;;;26.60
69545;BMP180;56766;52.260;20.746;2022-08-19T07:22:09;100153.40;;;26.70
69545;BMP180;56766;52.260;20.746;2022-08-19T07:24:38;100149.00;;;26.76
69545;BMP180;56766;52.260;20.746;2022-08-19T07:27:07;100148.00;;;26.80
69545;BMP180;56766;52.260;20.746;2022-08-19T07:29:36;100146.60;;;26.90
69545;BMP180;56766;52.260;20.746;2022-08-19T07:32:05;100144.00;;;26.90
69545;BMP180;56766;52.260;20.746;2022-08-19T07:34:33;100146.80;;;27.00
69545;BMP180;56766;52.260;20.746;2022-08-19T07:37:05;100148.00;;;27.00
69545;BMP180;56766;52.260;20.746;2022-08-19T07:39:36;100149.20;;;27.06
69545;BMP180;56766;52.260;20.746;2022-08-19T07:42:10;100148.80;;;27.18
69545;BMP180;56766;52.260;20.746;2022-08-19T07:44:37;100153.00;;;27.26
69545;BMP180;56766;52.260;20.746;2022-08-19T07:47:05;100151.40;;;27.30
69545;BMP180;56766;52.260;20.746;2022-08-19T07:49:33;100154.40;;;27.32
69545;BMP180;56766;52.260;20.746;2022-08-19T07:52:06;100158.40;;;27.40
69545;BMP180;56766;52.260;20.746;2022-08-19T07:54:37;100164.20;;;27.50
69545;BMP180;56766;52.260;20.746;2022-08-19T07:57:06;100160.20;;;27.60
69545;BMP180;56766;52.260;20.746;2022-08-19T07:59:34;100149.40;;;27.70
69545;BMP180;56766;52.260;20.746;2022-08-19T08:02:02;100150.40;;;27.80
69545;BMP180;56766;52.260;20.746;2022-08-19T08:04:31;100140.00;;;28.00
69545;BMP180;56766;52.260;20.746;2022-08-19T08:07:17;100140.20;;;28.12
69545;BMP180;56766;52.260;20.746;2022-08-19T08:10:06;100147.40;;;28.36
69545;BMP180;56766;52.260;20.746;2022-08-19T08:12:39;100151.20;;;28.60
69545;BMP180;56766;52.260;20.746;2022-08-19T08:15:15;100153.20;;;28.70
69545;BMP180;56766;52.260;20.746;2022-08-19T08:17:43;100156.00;;;28.90
69545;BMP180;56766;52.260;20.746;2022-08-19T08:20:11;100153.80;;;29.00
69545;BMP180;56766;52.260;20.746;2022-08-19T08:22:45;100157.60;;;29.10
69545;BMP180;56766;52.260;20.746;2022-08-19T08:25:30;100155.20;;;29.20
69545;BMP180;56766;52.260;20.746;2022-08-19T08:27:58;100159.40;;;29.30
69545;BMP180;56766;52.260;20.746;2022-08-19T08:30:29;100160.00;;;29.40
69545;BMP180;56766;52.260;20.746;2022-08-19T08:32:59;100154.80;;;29.40
69545;BMP180;56766;52.260;20.746;2022-08-19T08:35:25;100153.40;;;29.48
69545;BMP180;56766;52.260;20.746;2022-08-19T08:37:54;100151.00;;;29.50
69545;BMP180;56766;52.260;20.746;2022-08-19T08:43:30;100162.00;;;29.70
69545;BMP180;56766;52.260;20.746;2022-08-19T08:46:09;100165.20;;;29.70
69545;BMP180;56766;52.260;20.746;2022-08-19T08:51:39;100173.20;;;29.90
69545;BMP180;56766;52.260;20.746;2022-08-19T08:54:14;100177.80;;;29.90
69545;BMP180;56766;52.260;20.746;2022-08-19T08:56:44;100177.40;;;30.00
69545;BMP180;56766;52.260;20.746;2022-08-19T08:59:31;100173.00;;;30.00
69545;BMP180;56766;52.260;20.746;2022-08-19T09:02:01;100170.20;;;30.00
69545;BMP180;56766;52.260;20.746;2022-08-19T09:04:29;100167.20;;;30.10
69545;BMP180;56766;52.260;20.746;2022-08-19T09:07:18;100171.60;;;30.20
69545;BMP180;56766;52.260;20.746;2022-08-19T09:09:50;100179.00;;;30.20
69545;BMP180;56766;52.260;20.746;2022-08-19T09:12:39;100177.60;;;30.30
69545;BMP180;56766;52.260;20.746;2022-08-19T09:15:13;100178.20;;;30.40
69545;BMP180;56766;52.260;20.746;2022-08-19T09:17:40;100181.00;;;30.46
69545;BMP180;56766;52.260;20.746;2022-08-19T09:22:39;100198.00;;;30.60
69545;BMP180;56766;52.260;20.746;2022-08-19T09:25:10;100203.80;;;30.78
69545;BMP180;56766;52.260;20.746;2022-08-19T09:27:40;100202.40;;;30.90
69545;BMP180;56766;52.260;20.746;2022-08-19T09:30:22;100198.20;;;30.90
69545;BMP180;56766;52.260;20.746;2022-08-19T09:32:51;100193.80;;;31.00
69545;BMP180;56766;52.260;20.746;2022-08-19T09:35:26;100191.00;;;31.10
69545;BMP180;56766;52.260;20.746;2022-08-19T09:37:56;100187.00;;;31.20
69545;BMP180;56766;52.260;20.746;2022-08-19T09:40:25;100184.40;;;31.40
69545;BMP180;56766;52.260;20.746;2022-08-19T09:42:52;100180.00;;;31.50
69545;BMP180;56766;52.260;20.746;2022-08-19T09:45:21;100190.40;;;31.60
69545;BMP180;56766;52.260;20.746;2022-08-19T09:47:53;100189.60;;;31.70
69545;BMP180;56766;52.260;20.746;2022-08-19T09:50:22;100186.40;;;31.80
69545;BMP180;56766;52.260;20.746;2022-08-19T09:52:50;100181.80;;;31.90
69545;BMP180;56766;52.260;20.746;2022-08-19T09:55:20;100176.20;;;32.00
69545;BMP180;56766;52.260;20.746;2022-08-19T09:57:46;100177.00;;;32.10
69545;BMP180;56766;52.260;20.746;2022-08-19T10:00:13;100177.80;;;32.10
69545;BMP180;56766;52.260;20.746;2022-08-19T10:02:40;100181.00;;;32.20
69545;BMP180;56766;52.260;20.746;2022-08-19T10:05:07;100175.40;;;32.20
69545;BMP180;56766;52.260;20.746;2022-08-19T10:07:53;100176.20;;;32.20
69545;BMP180;56766;52.260;20.746;2022-08-19T10:10:20;100171.40;;;32.30
69545;BMP180;56766;52.260;20.746;2022-08-19T10:12:47;100175.00;;;32.40
69545;BMP180;56766;52.260;20.746;2022-08-19T10:15:14;100163.60;;;32.40
69545;BMP180;56766;52.260;20.746;2022-08-19T10:17:41;100157.80;;;32.40
69545;BMP180;56766;52.260;20.746;2022-08-19T10:20:09;100162.60;;;32.50
69545;BMP180;56766;52.260;20.746;2022-08-19T10:22:35;100165.40;;;32.60
69545;BMP180;56766;52.260;20.746;2022-08-19T10:25:05;100163.20;;;32.70
69545;BMP180;56766;52.260;20.746;2022-08-19T10:27:32;100168.40;;;32.70
69545;BMP180;56766;52.260;20.746;2022-08-19T10:29:59;100165.60;;;32.70
69545;BMP180;56766;52.260;20.746;2022-08-19T10:32:26;100163.60;;;32.80
69545;BMP180;56766;52.260;20.746;2022-08-19T10:34:52;100165.80;;;32.86
69545;BMP180;56766;52.260;20.746;2022-08-19T10:37:20;100163.80;;;32.90
69545;BMP180;56766;52.260;20.746;2022-08-19T10:39:47;100163.40;;;32.90
69545;BMP180;56766;52.260;20.746;2022-08-19T10:42:16;100155.80;;;32.90
69545;BMP180;56766;52.260;20.746;2022-08-19T10:44:45;100157.00;;;32.90
69545;BMP180;56766;52.260;20.746;2022-08-19T10:47:13;100156.20;;;32.90
69545;BMP180;56766;52.260;20.746;2022-08-19T10:49:40;100153.00;;;32.90
69545;BMP180;56766;52.260;20.746;2022-08-19T10:52:27;100160.00;;;32.90
69545;BMP180;56766;52.260;20.746;2022-08-19T10:55:02;100151.40;;;33.00
69545;BMP180;56766;52.260;20.746;2022-08-19T10:57:47;100153.00;;;33.00
69545;BMP180;56766;52.260;20.746;2022-08-19T11:00:15;100150.60;;;33.14
69545;BMP180;56766;52.260;20.746;2022-08-19T11:02:42;100147.80;;;33.30
69545;BMP180;56766;52.260;20.746;2022-08-19T11:05:10;100146.20;;;33.40
69545;BMP180;56766;52.260;20.746;2022-08-19T11:07:41;100148.60;;;33.30
69545;BMP180;56766;52.260;20.746;2022-08-19T11:10:11;100146.00;;;33.30
69545;BMP180;56766;52.260;20.746;2022-08-19T11:12:40;100143.40;;;33.30
69545;BMP180;56766;52.260;20.746;2022-08-19T11:15:09;100136.60;;;33.32
69545;BMP180;56766;52.260;20.746;2022-08-19T11:17:41;100136.00;;;33.40
69545;BMP180;56766;52.260;20.746;2022-08-19T11:20:12;100136.40;;;33.50
69545;BMP180;56766;52.260;20.746;2022-08-19T11:22:41;100130.20;;;33.58
69545;BMP180;56766;52.260;20.746;2022-08-19T11:25:10;100131.20;;;33.60
69545;BMP180;56766;52.260;20.746;2022-08-19T11:27:40;100128.80;;;33.60
69545;BMP180;56766;52.260;20.746;2022-08-19T11:30:12;100131.20;;;33.60
69545;BMP180;56766;52.260;20.746;2022-08-19T11:32:42;100129.40;;;33.60
69545;BMP180;56766;52.260;20.746;2022-08-19T11:35:09;100121.40;;;33.58
69545;BMP180;56766;52.260;20.746;2022-08-19T11:37:37;100115.80;;;33.52
69545;BMP180;56766;52.260;20.746;2022-08-19T11:40:07;100113.00;;;33.50
69545;BMP180;56766;52.260;20.746;2022-08-19T11:42:34;100108.40;;;33.60
69545;BMP180;56766;52.260;20.746;2022-08-19T11:45:19;100107.40;;;33.54
69545;BMP180;56766;52.260;20.746;2022-08-19T11:47:46;100100.00;;;33.50
69545;BMP180;56766;52.260;20.746;2022-08-19T11:50:16;100100.00;;;33.50
69545;BMP180;56766;52.260;20.746;2022-08-19T11:52:43;100107.40;;;33.50
69545;BMP180;56766;52.260;20.746;2022-08-19T11:55:13;100103.60;;;33.60
69545;BMP180;56766;52.260;20.746;2022-08-19T11:57:41;100096.40;;;33.60
69545;BMP180;56766;52.260;20.746;2022-08-19T12:00:10;100098.20;;;33.60
69545;BMP180;56766;52.260;20.746;2022-08-19T12:02:40;100094.00;;;33.60
69545;BMP180;56766;52.260;20.746;2022-08-19T12:05:07;100101.00;;;33.70
69545;BMP180;56766;52.260;20.746;2022-08-19T12:07:34;100089.20;;;33.70
69545;BMP180;56766;52.260;20.746;2022-08-19T12:10:02;100087.00;;;33.70
69545;BMP180;56766;52.260;20.746;2022-08-19T12:12:29;100085.60;;;33.80
69545;BMP180;56766;52.260;20.746;2022-08-19T12:14:56;100085.80;;;33.80
69545;BMP180;56766;52.260;20.746;2022-08-19T12:17:28;100082.00;;;33.80
69545;BMP180;56766;52.260;20.746;2022-08-19T12:19:55;100077.80;;;33.80
69545;BMP180;56766;52.260;20.746;2022-08-19T12:22:22;100079.60;;;33.80
69545;BMP180;56766;52.260;20.746;2022-08-19T12:24:49;100072.40;;;33.90
69545;BMP180;56766;52.260;20.746;2022-08-19T12:27:18;100063.80;;;33.82
69545;BMP180;56766;52.260;20.746;2022-08-19T12:29:45;100069.20;;;33.80
69545;BMP180;56766;52.260;20.746;2022-08-19T12:32:12;100071.20;;;33.78
69545;BMP180;56766;52.260;20.746;2022-08-19T12:34:39;100068.00;;;33.70
69545;BMP180;56766;52.260;20.746;2022-08-19T12:37:07;100073.40;;;33.60
69545;BMP180;56766;52.260;20.746;2022-08-19T12:39:38;100064.60;;;33.60
69545;BMP180;56766;52.260;20.746;2022-08-19T12:42:05;100055.20;;;33.60
69545;BMP180;56766;52.260;20.746;2022-08-19T12:44:34;100050.60;;;33.70
69545;BMP180;56766;52.260;20.746;2022-08-19T12:47:01;100058.60;;;33.70
69545;BMP180;56766;52.260;20.746;2022-08-19T12:49:30;100060.80;;;33.70
69545;BMP180;56766;52.260;20.746;2022-08-19T12:52:00;100057.60;;;33.70
69545;BMP180;56766;52.260;20.746;2022-08-19T12:54:27;100051.40;;;33.70
69545;BMP180;56766;52.260;20.746;2022-08-19T12:56:59;100051.00;;;33.60
69545;BMP180;56766;52.260;20.746;2022-08-19T12:59:26;100058.60;;;33.50
69545;BMP180;56766;52.260;20.746;2022-08-19T13:01:53;100051.40;;;33.40
69545;BMP180;56766;52.260;20.746;2022-08-19T13:04:20;100048.00;;;33.40
69545;BMP180;56766;52.260;20.746;2022-08-19T13:06:47;100048.40;;;33.30
69545;BMP180;56766;52.260;20.746;2022-08-19T13:09:14;100047.80;;;33.30
69545;BMP180;56766;52.260;20.746;2022-08-19T13:11:40;100046.80;;;33.20
69545;BMP180;56766;52.260;20.746;2022-08-19T13:14:07;100049.20;;;33.10
69545;BMP180;56766;52.260;20.746;2022-08-19T13:16:36;100047.20;;;33.00
69545;BMP180;56766;52.260;20.746;2022-08-19T13:19:02;100054.20;;;33.00
69545;BMP180;56766;52.260;20.746;2022-08-19T13:21:31;100057.20;;;32.94
69545;BMP180;56766;52.260;20.746;2022-08-19T13:23:58;100053.40;;;32.90
69545;BMP180;56766;52.260;20.746;2022-08-19T13:26:25;100053.80;;;32.80
69545;BMP180;56766;52.260;20.746;2022-08-19T13:28:51;100060.20;;;32.80
69545;BMP180;56766;52.260;20.746;2022-08-19T13:31:41;100057.80;;;32.90
69545;BMP180;56766;52.260;20.746;2022-08-19T13:34:33;100054.40;;;32.80
69545;BMP180;56766;52.260;20.746;2022-08-19T13:37:03;100051.20;;;32.70
69545;BMP180;56766;52.260;20.746;2022-08-19T13:39:32;100056.00;;;32.70
69545;BMP180;56766;52.260;20.746;2022-08-19T13:41:59;100055.40;;;32.60
69545;BMP180;56766;52.260;20.746;2022-08-19T13:44:28;100052.40;;;32.60
69545;BMP180;56766;52.260;20.746;2022-08-19T13:47:05;100053.00;;;32.60
69545;BMP180;56766;52.260;20.746;2022-08-19T13:49:35;100052.20;;;32.60
69545;BMP180;56766;52.260;20.746;2022-08-19T13:52:05;100053.60;;;32.70
69545;BMP180;56766;52.260;20.746;2022-08-19T13:54:32;100049.00;;;32.72
69545;BMP180;56766;52.260;20.746;2022-08-19T13:56:58;100046.60;;;32.70
69545;BMP180;56766;52.260;20.746;2022-08-19T13:59:25;100043.40;;;32.66
69545;BMP180;56766;52.260;20.746;2022-08-19T14:01:52;100048.40;;;32.60
69545;BMP180;56766;52.260;20.746;2022-08-19T14:04:19;100047.80;;;32.60
69545;BMP180;56766;52.260;20.746;2022-08-19T14:06:46;100055.20;;;32.70
69545;BMP180;56766;52.260;20.746;2022-08-19T14:09:12;100055.00;;;32.70
69545;BMP180;56766;52.260;20.746;2022-08-19T14:11:39;100052.40;;;32.70